sensor_id;sensor_type;location;lat;lon;timestamp;P1;durP1;ratioP1;P2;durP2;ratioP2
78416;SDS011;67715;46.170;6.140;2023-07-20T00:00:11;4.10;;;2.40;;
78416;SDS011;67715;46.170;6.140;2023-07-20T00:02:38;5.07;;;2.97;;
78416;SDS011;67715;46.170;6.140;2023-07-20T00:05:04;6.47;;;2.90;;
78416;SDS011;67715;46.170;6.140;2023-07-20T00:07:29;6.65;;;2.75;;
78416;SDS011;67715;46.170;6.140;2023-07-20T00:09:55;6.00;;;2.73;;
78416;SDS011;67715;46.170;6.140;2023-07-20T00:12:20;5.27;;;2.87;;
78416;SDS011;67715;46.170;6.140;2023-07-20T00:14:45;6.67;;;3.10;;
78416;SDS011;67715;46.170;6.140;2023-07-20T00:17:11;4.25;;;2.50;;
78416;SDS011;67715;46.170;6.140;2023-07-20T00:19:36;6.13;;;2.73;;
78416;SDS011;67715;46.170;6.140;2023-07-20T00:22:01;3.40;;;2.23;;
78416;SDS011;67715;46.170;6.140;2023-07-20T00:24:27;6.85;;;2.78;;
78416;SDS011;67715;46.170;6.140;2023-07-20T00:26:52;3.40;;;2.27;;
78416;SDS011;67715;46.170;6.140;2023-07-20T00:29:17;4.63;;;2.90;;
78416;SDS011;67715;46.170;6.140;2023-07-20T00:31:43;5.35;;;2.45;;
78416;SDS011;67715;46.170;6.140;2023-07-20T00:34:08;3.58;;;2.75;;
78416;SDS011;67715;46.170;6.140;2023-07-20T00:36:33;5.33;;;2.83;;
78416;SDS011;67715;46.170;6.140;2023-07-20T00:38:59;6.13;;;3.53;;
78416;SDS011;67715;46.170;6.140;2023-07-20T00:41:24;4.85;;;2.80;;
78416;SDS011;67715;46.170;6.140;2023-07-20T00:43:50;5.10;;;2.53;;
78416;SDS011;67715;46.170;6.140;2023-07-20T00:46:15;5.60;;;2.60;;
78416;SDS011;67715;46.170;6.140;2023-07-20T00:48:41;6.40;;;3.07;;
78416;SDS011;67715;46.170;6.140;2023-07-20T00:51:06;6.07;;;3.00;;
78416;SDS011;67715;46.170;6.140;2023-07-20T00:53:32;5.40;;;2.65;;
78416;SDS011;67715;46.170;6.140;2023-07-20T00:55:57;5.38;;;3.00;;
78416;SDS011;67715;46.170;6.140;2023-07-20T00:58:23;6.15;;;2.55;;
78416;SDS011;67715;46.170;6.140;2023-07-20T01:00:48;3.83;;;2.67;;
78416;SDS011;67715;46.170;6.140;2023-07-20T01:03:14;4.93;;;2.78;;
78416;SDS011;67715;46.170;6.140;2023-07-20T01:10:51;4.72;;;2.75;;
78416;SDS011;67715;46.170;6.140;2023-07-20T01:13:19;4.45;;;2.80;;
78416;SDS011;67715;46.170;6.140;2023-07-20T01:15:49;4.85;;;2.92;;
78416;SDS011;67715;46.170;6.140;2023-07-20T01:18:16;5.10;;;2.65;;
78416;SDS011;67715;46.170;6.140;2023-07-20T01:20:42;4.65;;;3.22;;
78416;SDS011;67715;46.170;6.140;2023-07-20T01:23:14;4.07;;;2.50;;
78416;SDS011;67715;46.170;6.140;2023-07-20T01:25:51;5.15;;;3.20;;
78416;SDS011;67715;46.170;6.140;2023-07-20T01:31:26;8.50;;;2.80;;
78416;SDS011;67715;46.170;6.140;2023-07-20T01:33:57;6.45;;;2.92;;
78416;SDS011;67715;46.170;6.140;2023-07-20T01:36:24;5.50;;;3.05;;
78416;SDS011;67715;46.170;6.140;2023-07-20T01:38:50;5.63;;;2.85;;
78416;SDS011;67715;46.170;6.140;2023-07-20T01:41:16;3.55;;;2.40;;
78416;SDS011;67715;46.170;6.140;2023-07-20T01:43:43;7.75;;;3.00;;
78416;SDS011;67715;46.170;6.140;2023-07-20T01:46:08;6.10;;;3.35;;
78416;SDS011;67715;46.170;6.140;2023-07-20T01:48:33;4.37;;;2.70;;
78416;SDS011;67715;46.170;6.140;2023-07-20T01:50:59;4.30;;;2.85;;
78416;SDS011;67715;46.170;6.140;2023-07-20T01:53:24;6.23;;;3.00;;
78416;SDS011;67715;46.170;6.140;2023-07-20T01:55:52;6.17;;;2.50;;
78416;SDS011;67715;46.170;6.140;2023-07-20T01:58:17;4.88;;;2.65;;
78416;SDS011;67715;46.170;6.140;2023-07-20T02:00:43;5.53;;;2.93;;
78416;SDS011;67715;46.170;6.140;2023-07-20T02:03:08;4.32;;;2.95;;
78416;SDS011;67715;46.170;6.140;2023-07-20T02:05:34;6.83;;;3.60;;
78416;SDS011;67715;46.170;6.140;2023-07-20T02:07:59;4.37;;;2.90;;
78416;SDS011;67715;46.170;6.140;2023-07-20T02:10:24;5.20;;;2.70;;
78416;SDS011;67715;46.170;6.140;2023-07-20T02:12:50;5.07;;;2.80;;
78416;SDS011;67715;46.170;6.140;2023-07-20T02:15:15;5.20;;;2.47;;
78416;SDS011;67715;46.170;6.140;2023-07-20T02:17:44;6.22;;;2.92;;
78416;SDS011;67715;46.170;6.140;2023-07-20T02:20:09;6.45;;;3.45;;
78416;SDS011;67715;46.170;6.140;2023-07-20T02:22:36;5.93;;;3.22;;
78416;SDS011;67715;46.170;6.140;2023-07-20T02:25:03;4.38;;;2.55;;
78416;SDS011;67715;46.170;6.140;2023-07-20T02:27:29;4.57;;;2.70;;
78416;SDS011;67715;46.170;6.140;2023-07-20T02:29:54;5.15;;;3.15;;
78416;SDS011;67715;46.170;6.140;2023-07-20T02:32:20;5.40;;;2.70;;
78416;SDS011;67715;46.170;6.140;2023-07-20T02:34:45;4.80;;;2.97;;
78416;SDS011;67715;46.170;6.140;2023-07-20T02:37:10;4.63;;;2.73;;
78416;SDS011;67715;46.170;6.140;2023-07-20T02:39:38;5.88;;;3.08;;
78416;SDS011;67715;46.170;6.140;2023-07-20T02:42:03;5.40;;;2.95;;
78416;SDS011;67715;46.170;6.140;2023-07-20T02:44:29;8.15;;;3.10;;
78416;SDS011;67715;46.170;6.140;2023-07-20T02:46:55;6.07;;;2.45;;
78416;SDS011;67715;46.170;6.140;2023-07-20T02:49:20;5.47;;;3.00;;
78416;SDS011;67715;46.170;6.140;2023-07-20T02:51:45;4.57;;;2.38;;
78416;SDS011;67715;46.170;6.140;2023-07-20T02:54:11;4.07;;;2.25;;
78416;SDS011;67715;46.170;6.140;2023-07-20T02:56:36;4.70;;;2.50;;
78416;SDS011;67715;46.170;6.140;2023-07-20T02:59:01;5.13;;;2.47;;
78416;SDS011;67715;46.170;6.140;2023-07-20T03:01:27;5.15;;;3.10;;
78416;SDS011;67715;46.170;6.140;2023-07-20T03:03:54;4.38;;;2.63;;
78416;SDS011;67715;46.170;6.140;2023-07-20T03:06:20;4.90;;;2.83;;
78416;SDS011;67715;46.170;6.140;2023-07-20T03:08:45;7.60;;;3.03;;
78416;SDS011;67715;46.170;6.140;2023-07-20T03:11:12;4.95;;;2.60;;
78416;SDS011;67715;46.170;6.140;2023-07-20T03:13:39;4.68;;;2.67;;
78416;SDS011;67715;46.170;6.140;2023-07-20T03:16:05;5.97;;;2.90;;
78416;SDS011;67715;46.170;6.140;2023-07-20T03:18:39;5.22;;;2.75;;
78416;SDS011;67715;46.170;6.140;2023-07-20T03:21:05;4.80;;;2.47;;
78416;SDS011;67715;46.170;6.140;2023-07-20T03:23:31;3.92;;;2.30;;
78416;SDS011;67715;46.170;6.140;2023-07-20T03:25:56;3.55;;;2.58;;
78416;SDS011;67715;46.170;6.140;2023-07-20T03:28:22;4.57;;;2.80;;
78416;SDS011;67715;46.170;6.140;2023-07-20T03:30:52;5.77;;;2.87;;
78416;SDS011;67715;46.170;6.140;2023-07-20T03:33:18;5.43;;;2.90;;
78416;SDS011;67715;46.170;6.140;2023-07-20T03:35:43;5.00;;;2.63;;
78416;SDS011;67715;46.170;6.140;2023-07-20T03:38:08;5.13;;;3.27;;
78416;SDS011;67715;46.170;6.140;2023-07-20T03:40:34;4.77;;;2.70;;
78416;SDS011;67715;46.170;6.140;2023-07-20T03:42:59;9.30;;;2.90;;
78416;SDS011;67715;46.170;6.140;2023-07-20T03:45:24;5.00;;;2.90;;
78416;SDS011;67715;46.170;6.140;2023-07-20T03:47:50;4.70;;;2.27;;
78416;SDS011;67715;46.170;6.140;2023-07-20T03:50:15;2.97;;;2.07;;
78416;SDS011;67715;46.170;6.140;2023-07-20T03:52:40;4.37;;;2.30;;
78416;SDS011;67715;46.170;6.140;2023-07-20T03:55:06;5.70;;;2.53;;
78416;SDS011;67715;46.170;6.140;2023-07-20T03:57:31;4.72;;;2.42;;
78416;SDS011;67715;46.170;6.140;2023-07-20T03:59:58;3.33;;;2.25;;
78416;SDS011;67715;46.170;6.140;2023-07-20T04:02:23;4.37;;;2.70;;
78416;SDS011;67715;46.170;6.140;2023-07-20T04:04:48;4.82;;;2.30;;
78416;SDS011;67715;46.170;6.140;2023-07-20T04:07:14;4.35;;;2.22;;
78416;SDS011;67715;46.170;6.140;2023-07-20T04:09:39;3.87;;;2.27;;
78416;SDS011;67715;46.170;6.140;2023-07-20T04:12:05;4.35;;;2.58;;
78416;SDS011;67715;46.170;6.140;2023-07-20T04:14:31;4.53;;;2.72;;
78416;SDS011;67715;46.170;6.140;2023-07-20T04:16:56;3.43;;;2.53;;
78416;SDS011;67715;46.170;6.140;2023-07-20T04:19:21;3.93;;;2.73;;
78416;SDS011;67715;46.170;6.140;2023-07-20T04:21:47;5.40;;;2.83;;
78416;SDS011;67715;46.170;6.140;2023-07-20T04:24:12;4.50;;;2.50;;
78416;SDS011;67715;46.170;6.140;2023-07-20T04:26:37;4.50;;;2.33;;
78416;SDS011;67715;46.170;6.140;2023-07-20T04:29:03;6.23;;;2.47;;
78416;SDS011;67715;46.170;6.140;2023-07-20T04:31:28;3.67;;;2.20;;
78416;SDS011;67715;46.170;6.140;2023-07-20T04:33:54;4.20;;;2.60;;
78416;SDS011;67715;46.170;6.140;2023-07-20T04:36:20;5.20;;;2.38;;
78416;SDS011;67715;46.170;6.140;2023-07-20T04:38:45;4.50;;;2.53;;
78416;SDS011;67715;46.170;6.140;2023-07-20T04:41:11;4.57;;;2.47;;
78416;SDS011;67715;46.170;6.140;2023-07-20T04:43:40;4.05;;;2.42;;
78416;SDS011;67715;46.170;6.140;2023-07-20T04:46:06;4.22;;;2.50;;
78416;SDS011;67715;46.170;6.140;2023-07-20T04:48:31;5.37;;;2.40;;
78416;SDS011;67715;46.170;6.140;2023-07-20T04:50:57;7.83;;;3.07;;
78416;SDS011;67715;46.170;6.140;2023-07-20T04:53:22;5.03;;;2.53;;
78416;SDS011;67715;46.170;6.140;2023-07-20T04:55:48;5.38;;;2.88;;
78416;SDS011;67715;46.170;6.140;2023-07-20T04:58:15;4.90;;;2.33;;
78416;SDS011;67715;46.170;6.140;2023-07-20T05:00:40;5.33;;;2.43;;
78416;SDS011;67715;46.170;6.140;2023-07-20T05:03:06;4.50;;;2.27;;
78416;SDS011;67715;46.170;6.140;2023-07-20T05:05:31;4.20;;;2.30;;
78416;SDS011;67715;46.170;6.140;2023-07-20T05:07:57;4.53;;;2.60;;
78416;SDS011;67715;46.170;6.140;2023-07-20T05:10:23;4.88;;;2.35;;
78416;SDS011;67715;46.170;6.140;2023-07-20T05:12:48;5.60;;;2.60;;
78416;SDS011;67715;46.170;6.140;2023-07-20T05:15:14;3.87;;;2.27;;
78416;SDS011;67715;46.170;6.140;2023-07-20T05:17:39;3.85;;;2.22;;
78416;SDS011;67715;46.170;6.140;2023-07-20T05:20:05;4.75;;;2.05;;
78416;SDS011;67715;46.170;6.140;2023-07-20T05:22:31;4.30;;;2.25;;
78416;SDS011;67715;46.170;6.140;2023-07-20T05:24:56;5.10;;;2.40;;
78416;SDS011;67715;46.170;6.140;2023-07-20T05:27:21;3.50;;;1.98;;
78416;SDS011;67715;46.170;6.140;2023-07-20T05:29:47;3.30;;;1.98;;
78416;SDS011;67715;46.170;6.140;2023-07-20T05:32:12;8.27;;;2.57;;
78416;SDS011;67715;46.170;6.140;2023-07-20T05:34:38;7.25;;;2.40;;
78416;SDS011;67715;46.170;6.140;2023-07-20T05:37:03;4.03;;;2.08;;
78416;SDS011;67715;46.170;6.140;2023-07-20T05:39:29;7.90;;;2.50;;
78416;SDS011;67715;46.170;6.140;2023-07-20T05:41:54;4.10;;;2.20;;
78416;SDS011;67715;46.170;6.140;2023-07-20T05:44:19;2.67;;;1.63;;
78416;SDS011;67715;46.170;6.140;2023-07-20T05:46:45;3.07;;;2.03;;
78416;SDS011;67715;46.170;6.140;2023-07-20T05:49:10;4.20;;;2.30;;
78416;SDS011;67715;46.170;6.140;2023-07-20T05:51:35;5.13;;;2.13;;
78416;SDS011;67715;46.170;6.140;2023-07-20T05:54:01;5.15;;;2.72;;
78416;SDS011;67715;46.170;6.140;2023-07-20T05:56:26;5.47;;;2.60;;
78416;SDS011;67715;46.170;6.140;2023-07-20T05:58:51;4.57;;;2.27;;
78416;SDS011;67715;46.170;6.140;2023-07-20T06:01:17;6.10;;;2.60;;
78416;SDS011;67715;46.170;6.140;2023-07-20T06:03:44;6.70;;;2.40;;
78416;SDS011;67715;46.170;6.140;2023-07-20T06:06:09;6.83;;;3.47;;
78416;SDS011;67715;46.170;6.140;2023-07-20T06:08:36;5.10;;;2.28;;
78416;SDS011;67715;46.170;6.140;2023-07-20T06:11:02;6.57;;;2.53;;
78416;SDS011;67715;46.170;6.140;2023-07-20T06:13:27;10.70;;;2.60;;
78416;SDS011;67715;46.170;6.140;2023-07-20T06:15:52;11.05;;;2.50;;
78416;SDS011;67715;46.170;6.140;2023-07-20T06:18:18;4.55;;;2.38;;
78416;SDS011;67715;46.170;6.140;2023-07-20T06:20:52;3.28;;;2.00;;
78416;SDS011;67715;46.170;6.140;2023-07-20T06:23:18;4.28;;;2.17;;
78416;SDS011;67715;46.170;6.140;2023-07-20T06:25:44;6.88;;;3.03;;
78416;SDS011;67715;46.170;6.140;2023-07-20T06:28:09;13.65;;;3.03;;
78416;SDS011;67715;46.170;6.140;2023-07-20T06:30:34;5.10;;;2.10;;
78416;SDS011;67715;46.170;6.140;2023-07-20T06:33:00;3.60;;;2.23;;
78416;SDS011;67715;46.170;6.140;2023-07-20T06:35:25;5.63;;;2.30;;
78416;SDS011;67715;46.170;6.140;2023-07-20T06:37:51;5.85;;;2.65;;
78416;SDS011;67715;46.170;6.140;2023-07-20T06:40:16;4.72;;;2.13;;
78416;SDS011;67715;46.170;6.140;2023-07-20T06:42:42;6.13;;;2.50;;
78416;SDS011;67715;46.170;6.140;2023-07-20T06:45:07;4.97;;;2.37;;
78416;SDS011;67715;46.170;6.140;2023-07-20T06:47:33;4.05;;;2.20;;
78416;SDS011;67715;46.170;6.140;2023-07-20T06:49:59;6.20;;;2.55;;
78416;SDS011;67715;46.170;6.140;2023-07-20T06:52:24;4.25;;;2.22;;
78416;SDS011;67715;46.170;6.140;2023-07-20T06:54:49;4.13;;;2.13;;
78416;SDS011;67715;46.170;6.140;2023-07-20T06:57:15;4.28;;;2.15;;
78416;SDS011;67715;46.170;6.140;2023-07-20T06:59:40;4.70;;;2.20;;
78416;SDS011;67715;46.170;6.140;2023-07-20T07:02:06;4.93;;;2.30;;
78416;SDS011;67715;46.170;6.140;2023-07-20T07:04:31;3.70;;;1.80;;
78416;SDS011;67715;46.170;6.140;2023-07-20T07:06:56;6.53;;;1.90;;
78416;SDS011;67715;46.170;6.140;2023-07-20T07:09:22;5.13;;;2.50;;
78416;SDS011;67715;46.170;6.140;2023-07-20T07:11:47;3.00;;;1.53;;
78416;SDS011;67715;46.170;6.140;2023-07-20T07:14:12;5.57;;;2.15;;
78416;SDS011;67715;46.170;6.140;2023-07-20T07:16:38;3.87;;;2.30;;
78416;SDS011;67715;46.170;6.140;2023-07-20T07:19:03;3.92;;;2.10;;
78416;SDS011;67715;46.170;6.140;2023-07-20T07:21:30;4.10;;;1.98;;
78416;SDS011;67715;46.170;6.140;2023-07-20T07:23:56;3.35;;;1.88;;
78416;SDS011;67715;46.170;6.140;2023-07-20T07:26:22;3.15;;;1.95;;
78416;SDS011;67715;46.170;6.140;2023-07-20T07:28:48;3.15;;;1.77;;
78416;SDS011;67715;46.170;6.140;2023-07-20T07:31:14;8.43;;;1.80;;
78416;SDS011;67715;46.170;6.140;2023-07-20T07:33:39;4.13;;;2.05;;
78416;SDS011;67715;46.170;6.140;2023-07-20T07:36:05;4.82;;;1.80;;
78416;SDS011;67715;46.170;6.140;2023-07-20T07:38:30;5.00;;;1.80;;
78416;SDS011;67715;46.170;6.140;2023-07-20T07:40:56;6.30;;;2.23;;
78416;SDS011;67715;46.170;6.140;2023-07-20T07:43:22;4.38;;;1.95;;
78416;SDS011;67715;46.170;6.140;2023-07-20T07:45:48;4.30;;;2.10;;
78416;SDS011;67715;46.170;6.140;2023-07-20T07:48:13;2.63;;;1.95;;
78416;SDS011;67715;46.170;6.140;2023-07-20T07:50:39;5.80;;;2.60;;
78416;SDS011;67715;46.170;6.140;2023-07-20T07:53:07;4.80;;;2.40;;
78416;SDS011;67715;46.170;6.140;2023-07-20T07:55:33;4.38;;;2.20;;
78416;SDS011;67715;46.170;6.140;2023-07-20T07:57:59;3.97;;;2.27;;
78416;SDS011;67715;46.170;6.140;2023-07-20T08:00:24;3.83;;;2.30;;
78416;SDS011;67715;46.170;6.140;2023-07-20T08:02:50;5.47;;;2.17;;
78416;SDS011;67715;46.170;6.140;2023-07-20T08:05:16;4.57;;;1.80;;
78416;SDS011;67715;46.170;6.140;2023-07-20T08:07:41;3.50;;;1.50;;
78416;SDS011;67715;46.170;6.140;2023-07-20T08:10:07;4.55;;;1.80;;
78416;SDS011;67715;46.170;6.140;2023-07-20T08:12:33;2.83;;;1.70;;
78416;SDS011;67715;46.170;6.140;2023-07-20T08:14:58;3.03;;;1.53;;
78416;SDS011;67715;46.170;6.140;2023-07-20T08:17:24;3.05;;;1.90;;
78416;SDS011;67715;46.170;6.140;2023-07-20T08:19:49;3.55;;;2.13;;
78416;SDS011;67715;46.170;6.140;2023-07-20T08:22:15;4.03;;;2.10;;
78416;SDS011;67715;46.170;6.140;2023-07-20T08:24:40;4.43;;;1.95;;
78416;SDS011;67715;46.170;6.140;2023-07-20T08:27:07;4.40;;;2.22;;
78416;SDS011;67715;46.170;6.140;2023-07-20T08:29:33;9.70;;;2.38;;
78416;SDS011;67715;46.170;6.140;2023-07-20T08:31:59;7.00;;;2.40;;
78416;SDS011;67715;46.170;6.140;2023-07-20T08:34:24;5.13;;;1.73;;
78416;SDS011;67715;46.170;6.140;2023-07-20T08:36:49;6.50;;;2.30;;
78416;SDS011;67715;46.170;6.140;2023-07-20T08:39:15;2.90;;;1.80;;
78416;SDS011;67715;46.170;6.140;2023-07-20T08:41:41;7.38;;;2.28;;
78416;SDS011;67715;46.170;6.140;2023-07-20T08:44:07;10.90;;;3.13;;
78416;SDS011;67715;46.170;6.140;2023-07-20T08:46:33;2.85;;;1.90;;
78416;SDS011;67715;46.170;6.140;2023-07-20T08:49:00;3.08;;;1.85;;
78416;SDS011;67715;46.170;6.140;2023-07-20T08:51:27;4.00;;;2.30;;
78416;SDS011;67715;46.170;6.140;2023-07-20T08:53:52;3.53;;;2.08;;
78416;SDS011;67715;46.170;6.140;2023-07-20T08:56:17;4.05;;;2.15;;
78416;SDS011;67715;46.170;6.140;2023-07-20T08:58:43;4.20;;;1.90;;
78416;SDS011;67715;46.170;6.140;2023-07-20T09:01:10;6.85;;;2.00;;
78416;SDS011;67715;46.170;6.140;2023-07-20T09:03:35;3.28;;;2.10;;
78416;SDS011;67715;46.170;6.140;2023-07-20T09:06:04;7.93;;;2.00;;
78416;SDS011;67715;46.170;6.140;2023-07-20T09:08:29;5.10;;;2.33;;
78416;SDS011;67715;46.170;6.140;2023-07-20T09:10:55;3.50;;;2.20;;
78416;SDS011;67715;46.170;6.140;2023-07-20T09:13:20;4.37;;;2.20;;
78416;SDS011;67715;46.170;6.140;2023-07-20T09:15:52;2.90;;;2.00;;
78416;SDS011;67715;46.170;6.140;2023-07-20T09:18:28;2.55;;;1.70;;
78416;SDS011;67715;46.170;6.140;2023-07-20T09:21:01;5.22;;;2.00;;
78416;SDS011;67715;46.170;6.140;2023-07-20T09:23:37;6.78;;;1.83;;
78416;SDS011;67715;46.170;6.140;2023-07-20T09:26:13;3.78;;;2.22;;
78416;SDS011;67715;46.170;6.140;2023-07-20T09:28:47;4.40;;;1.70;;
78416;SDS011;67715;46.170;6.140;2023-07-20T09:31:20;4.68;;;1.70;;
78416;SDS011;67715;46.170;6.140;2023-07-20T09:33:46;3.53;;;1.92;;
78416;SDS011;67715;46.170;6.140;2023-07-20T09:36:12;3.40;;;1.95;;
78416;SDS011;67715;46.170;6.140;2023-07-20T09:38:38;7.60;;;2.30;;
78416;SDS011;67715;46.170;6.140;2023-07-20T09:41:07;8.63;;;2.53;;
78416;SDS011;67715;46.170;6.140;2023-07-20T09:43:36;4.05;;;2.13;;
78416;SDS011;67715;46.170;6.140;2023-07-20T09:46:01;3.33;;;2.00;;
78416;SDS011;67715;46.170;6.140;2023-07-20T09:48:27;4.17;;;1.90;;
78416;SDS011;67715;46.170;6.140;2023-07-20T09:50:52;7.37;;;2.57;;
78416;SDS011;67715;46.170;6.140;2023-07-20T09:53:18;4.85;;;2.10;;
78416;SDS011;67715;46.170;6.140;2023-07-20T09:55:45;6.85;;;2.42;;
78416;SDS011;67715;46.170;6.140;2023-07-20T09:58:11;3.85;;;2.17;;
78416;SDS011;67715;46.170;6.140;2023-07-20T10:00:37;5.28;;;2.40;;
78416;SDS011;67715;46.170;6.140;2023-07-20T10:03:04;5.80;;;2.10;;
78416;SDS011;67715;46.170;6.140;2023-07-20T10:05:32;3.67;;;2.03;;
78416;SDS011;67715;46.170;6.140;2023-07-20T10:07:59;5.70;;;2.67;;
78416;SDS011;67715;46.170;6.140;2023-07-20T10:10:24;4.07;;;2.00;;
78416;SDS011;67715;46.170;6.140;2023-07-20T10:12:50;7.70;;;2.58;;
78416;SDS011;67715;46.170;6.140;2023-07-20T10:15:20;3.92;;;2.67;;
78416;SDS011;67715;46.170;6.140;2023-07-20T10:17:53;3.75;;;1.90;;
78416;SDS011;67715;46.170;6.140;2023-07-20T10:20:26;2.90;;;2.10;;
78416;SDS011;67715;46.170;6.140;2023-07-20T10:22:53;5.05;;;2.50;;
78416;SDS011;67715;46.170;6.140;2023-07-20T10:25:19;5.15;;;2.40;;
78416;SDS011;67715;46.170;6.140;2023-07-20T10:27:45;4.22;;;2.08;;
78416;SDS011;67715;46.170;6.140;2023-07-20T10:30:11;3.97;;;2.42;;
78416;SDS011;67715;46.170;6.140;2023-07-20T10:32:36;3.50;;;2.00;;
78416;SDS011;67715;46.170;6.140;2023-07-20T10:35:06;4.80;;;1.95;;
78416;SDS011;67715;46.170;6.140;2023-07-20T10:37:53;8.13;;;2.53;;
78416;SDS011;67715;46.170;6.140;2023-07-20T10:40:29;4.93;;;2.25;;
78416;SDS011;67715;46.170;6.140;2023-07-20T10:43:00;5.60;;;2.05;;
78416;SDS011;67715;46.170;6.140;2023-07-20T10:45:48;6.60;;;2.08;;
78416;SDS011;67715;46.170;6.140;2023-07-20T10:53:41;3.63;;;2.33;;
78416;SDS011;67715;46.170;6.140;2023-07-20T10:56:11;5.05;;;2.10;;
78416;SDS011;67715;46.170;6.140;2023-07-20T10:58:38;4.53;;;2.40;;
78416;SDS011;67715;46.170;6.140;2023-07-20T11:01:04;4.00;;;2.15;;
78416;SDS011;67715;46.170;6.140;2023-07-20T11:03:31;7.47;;;2.00;;
78416;SDS011;67715;46.170;6.140;2023-07-20T11:09:09;6.53;;;2.78;;
78416;SDS011;67715;46.170;6.140;2023-07-20T11:11:37;4.75;;;2.35;;
78416;SDS011;67715;46.170;6.140;2023-07-20T11:14:04;5.55;;;3.03;;
78416;SDS011;67715;46.170;6.140;2023-07-20T11:19:04;5.90;;;2.20;;
78416;SDS011;67715;46.170;6.140;2023-07-20T11:21:34;5.57;;;2.20;;
78416;SDS011;67715;46.170;6.140;2023-07-20T11:24:02;13.57;;;2.67;;
78416;SDS011;67715;46.170;6.140;2023-07-20T11:26:28;3.95;;;2.15;;
78416;SDS011;67715;46.170;6.140;2023-07-20T11:28:53;3.07;;;2.10;;
78416;SDS011;67715;46.170;6.140;2023-07-20T11:31:18;4.57;;;2.15;;
78416;SDS011;67715;46.170;6.140;2023-07-20T11:33:44;4.23;;;2.17;;
78416;SDS011;67715;46.170;6.140;2023-07-20T11:36:09;2.70;;;1.92;;
78416;SDS011;67715;46.170;6.140;2023-07-20T11:38:35;5.38;;;2.00;;
78416;SDS011;67715;46.170;6.140;2023-07-20T11:41:02;3.70;;;1.63;;
78416;SDS011;67715;46.170;6.140;2023-07-20T11:43:27;2.58;;;1.85;;
78416;SDS011;67715;46.170;6.140;2023-07-20T11:45:53;2.93;;;1.63;;
78416;SDS011;67715;46.170;6.140;2023-07-20T11:48:19;4.32;;;2.17;;
78416;SDS011;67715;46.170;6.140;2023-07-20T11:50:44;22.73;;;3.67;;
78416;SDS011;67715;46.170;6.140;2023-07-20T11:53:09;2.60;;;1.90;;
78416;SDS011;67715;46.170;6.140;2023-07-20T11:55:35;4.80;;;2.00;;
78416;SDS011;67715;46.170;6.140;2023-07-20T11:58:02;3.90;;;1.75;;
78416;SDS011;67715;46.170;6.140;2023-07-20T12:00:28;5.28;;;2.03;;
78416;SDS011;67715;46.170;6.140;2023-07-20T12:02:53;5.80;;;2.03;;
78416;SDS011;67715;46.170;6.140;2023-07-20T12:05:19;2.90;;;2.00;;
78416;SDS011;67715;46.170;6.140;2023-07-20T12:07:44;2.90;;;1.42;;
78416;SDS011;67715;46.170;6.140;2023-07-20T12:10:10;3.47;;;1.73;;
78416;SDS011;67715;46.170;6.140;2023-07-20T12:12:40;4.45;;;1.50;;
78416;SDS011;67715;46.170;6.140;2023-07-20T12:15:25;2.92;;;1.90;;
78416;SDS011;67715;46.170;6.140;2023-07-20T12:17:58;3.15;;;1.48;;
78416;SDS011;67715;46.170;6.140;2023-07-20T12:20:28;4.25;;;1.60;;
78416;SDS011;67715;46.170;6.140;2023-07-20T12:23:01;2.13;;;1.45;;
78416;SDS011;67715;46.170;6.140;2023-07-20T12:25:37;2.50;;;1.50;;
78416;SDS011;67715;46.170;6.140;2023-07-20T12:28:05;1.98;;;1.50;;
78416;SDS011;67715;46.170;6.140;2023-07-20T12:30:31;2.88;;;2.10;;
78416;SDS011;67715;46.170;6.140;2023-07-20T12:32:57;4.50;;;1.93;;
78416;SDS011;67715;46.170;6.140;2023-07-20T12:35:22;3.23;;;2.00;;
78416;SDS011;67715;46.170;6.140;2023-07-20T12:37:47;5.23;;;1.50;;
78416;SDS011;67715;46.170;6.140;2023-07-20T12:40:14;5.72;;;1.80;;
78416;SDS011;67715;46.170;6.140;2023-07-20T12:42:39;3.95;;;1.60;;
78416;SDS011;67715;46.170;6.140;2023-07-20T12:45:05;2.17;;;1.47;;
78416;SDS011;67715;46.170;6.140;2023-07-20T12:47:30;2.42;;;1.33;;
78416;SDS011;67715;46.170;6.140;2023-07-20T12:49:56;7.60;;;1.90;;
78416;SDS011;67715;46.170;6.140;2023-07-20T12:52:21;2.03;;;1.43;;
78416;SDS011;67715;46.170;6.140;2023-07-20T12:54:46;4.90;;;1.67;;
78416;SDS011;67715;46.170;6.140;2023-07-20T12:57:12;3.40;;;1.70;;
78416;SDS011;67715;46.170;6.140;2023-07-20T12:59:37;2.40;;;1.40;;
78416;SDS011;67715;46.170;6.140;2023-07-20T13:02:02;3.67;;;1.63;;
78416;SDS011;67715;46.170;6.140;2023-07-20T13:04:28;1.60;;;1.30;;
78416;SDS011;67715;46.170;6.140;2023-07-20T13:06:53;8.05;;;1.77;;
78416;SDS011;67715;46.170;6.140;2023-07-20T13:09:19;2.00;;;1.30;;
78416;SDS011;67715;46.170;6.140;2023-07-20T13:11:44;5.53;;;1.77;;
78416;SDS011;67715;46.170;6.140;2023-07-20T13:14:11;5.53;;;1.90;;
78416;SDS011;67715;46.170;6.140;2023-07-20T13:16:36;3.60;;;2.13;;
78416;SDS011;67715;46.170;6.140;2023-07-20T13:19:02;3.23;;;1.90;;
78416;SDS011;67715;46.170;6.140;2023-07-20T13:21:27;10.93;;;2.93;;
78416;SDS011;67715;46.170;6.140;2023-07-20T13:23:53;2.70;;;1.85;;
78416;SDS011;67715;46.170;6.140;2023-07-20T13:26:18;3.72;;;2.30;;
78416;SDS011;67715;46.170;6.140;2023-07-20T13:28:43;5.67;;;2.20;;
78416;SDS011;67715;46.170;6.140;2023-07-20T13:31:09;2.10;;;1.30;;
78416;SDS011;67715;46.170;6.140;2023-07-20T13:33:35;2.38;;;1.60;;
78416;SDS011;67715;46.170;6.140;2023-07-20T13:36:01;1.80;;;1.30;;
78416;SDS011;67715;46.170;6.140;2023-07-20T13:38:26;3.92;;;1.67;;
78416;SDS011;67715;46.170;6.140;2023-07-20T13:40:52;5.45;;;1.80;;
78416;SDS011;67715;46.170;6.140;2023-07-20T13:43:17;4.17;;;1.73;;
78416;SDS011;67715;46.170;6.140;2023-07-20T13:45:42;4.13;;;2.13;;
78416;SDS011;67715;46.170;6.140;2023-07-20T13:48:08;3.17;;;1.90;;
78416;SDS011;67715;46.170;6.140;2023-07-20T13:50:33;3.80;;;1.80;;
78416;SDS011;67715;46.170;6.140;2023-07-20T13:52:59;3.37;;;1.70;;
78416;SDS011;67715;46.170;6.140;2023-07-20T13:55:24;3.50;;;1.90;;
78416;SDS011;67715;46.170;6.140;2023-07-20T13:57:49;2.43;;;1.20;;
78416;SDS011;67715;46.170;6.140;2023-07-20T14:00:15;11.65;;;2.20;;
78416;SDS011;67715;46.170;6.140;2023-07-20T14:02:41;4.43;;;1.60;;
78416;SDS011;67715;46.170;6.140;2023-07-20T14:05:06;3.67;;;1.60;;
78416;SDS011;67715;46.170;6.140;2023-07-20T14:07:33;3.45;;;1.33;;
78416;SDS011;67715;46.170;6.140;2023-07-20T14:09:58;1.83;;;1.20;;
78416;SDS011;67715;46.170;6.140;2023-07-20T14:12:24;2.97;;;1.30;;
78416;SDS011;67715;46.170;6.140;2023-07-20T14:14:49;1.52;;;1.20;;
78416;SDS011;67715;46.170;6.140;2023-07-20T14:17:14;18.40;;;2.70;;
78416;SDS011;67715;46.170;6.140;2023-07-20T14:19:40;3.00;;;1.13;;
78416;SDS011;67715;46.170;6.140;2023-07-20T14:22:06;4.90;;;1.33;;
78416;SDS011;67715;46.170;6.140;2023-07-20T14:24:32;5.37;;;1.90;;
78416;SDS011;67715;46.170;6.140;2023-07-20T14:26:57;8.23;;;1.93;;
78416;SDS011;67715;46.170;6.140;2023-07-20T14:29:23;2.35;;;1.10;;
78416;SDS011;67715;46.170;6.140;2023-07-20T14:31:48;3.93;;;1.50;;
78416;SDS011;67715;46.170;6.140;2023-07-20T14:34:16;2.85;;;1.40;;
78416;SDS011;67715;46.170;6.140;2023-07-20T14:36:41;9.30;;;2.00;;
78416;SDS011;67715;46.170;6.140;2023-07-20T14:39:07;6.33;;;1.47;;
78416;SDS011;67715;46.170;6.140;2023-07-20T14:41:32;3.80;;;1.23;;
78416;SDS011;67715;46.170;6.140;2023-07-20T14:43:57;9.27;;;1.63;;
78416;SDS011;67715;46.170;6.140;2023-07-20T14:46:23;14.68;;;1.92;;
78416;SDS011;67715;46.170;6.140;2023-07-20T14:48:48;2.70;;;1.30;;
78416;SDS011;67715;46.170;6.140;2023-07-20T14:51:13;1.83;;;1.10;;
78416;SDS011;67715;46.170;6.140;2023-07-20T14:53:39;2.97;;;1.40;;
78416;SDS011;67715;46.170;6.140;2023-07-20T14:56:04;3.40;;;1.30;;
78416;SDS011;67715;46.170;6.140;2023-07-20T14:58:29;3.97;;;1.37;;
78416;SDS011;67715;46.170;6.140;2023-07-20T15:00:55;8.40;;;1.65;;